Time;durP1;ratioP1;P1;durP2;ratioP2;P2;SDS_P1;SDS_P2;PMS_P1;PMS_P2;Temp;Humidity;BMP_temperature;BMP_pressure;BME280_temperature;BME280_humidity;BME280_pressure;Samples;Min_cycle;Max_cycle;Signal;HPM_P1;HPM_P2
2022/09/04 00:01:44;;;;;;;57.92;10.63;;;;;;;;;;4976459;28;20031;-59
2022/09/04 00:04:11;;;;;;;63.03;11.57;;;;;;;;;;4973830;28;20038;-59
2022/09/04 00:06:42;;;;;;;58.72;11.43;;;;;;;;;;4976150;28;20071;-59
2022/09/04 00:09:15;;;;;;;56.10;11.70;;;;;;;;;;4976376;28;20037;-63
2022/09/04 00:11:47;;;;;;;62.35;11.65;;;;;;;;;;4976104;28;20051;-60
2022/09/04 00:14:13;;;;;;;;;;;;;;;;;;4976607;28;20030;-62
2022/09/04 00:17:02;;;;;;;68.88;12.93;;;;;;;;;;4972154;28;19920;-61
2022/09/04 00:19:36;;;;;;;77.47;13.98;;;;;;;;;;4965431;28;20089;-60
2022/09/04 00:22:07;;;;;;;64.70;12.25;;;;;;;;;;4964542;28;20030;-63
2022/09/04 00:24:42;;;;;;;57.20;12.32;;;;;;;;;;4974379;28;20046;-60
2022/09/04 00:27:14;;;;;;;68.07;14.32;;;;;;;;;;4974294;28;20094;-61
2022/09/04 00:29:48;;;;;;;72.57;13.20;;;;;;;;;;4974653;28;20027;-59
2022/09/04 00:32:34;;;;;;;63.05;12.73;;;;;;;;;;4973934;28;20089;-60
2022/09/04 00:35:05;;;;;;;75.28;13.95;;;;;;;;;;4972862;28;20032;-61
2022/09/04 00:37:36;;;;;;;80.32;14.35;;;;;;;;;;4973633;28;20023;-60
2022/09/04 00:40:20;;;;;;;95.03;16.08;;;;;;;;;;4975399;28;20489;-61
2022/09/04 00:42:47;;;;;;;104.07;16.30;;;;;;;;;;4973929;28;20050;-59
2022/09/04 00:45:20;;;;;;;109.88;21.55;;;;;;;;;;4961070;28;20393;-60
2022/09/04 00:48:01;;;;;;;99.30;21.95;;;;;;;;;;4957062;28;20039;-59
2022/09/04 00:50:38;;;;;;;117.18;21.30;;;;;;;;;;4960858;28;20035;-60
2022/09/04 00:53:43;;;;;;;115.88;22.10;;;;;;;;;;4962189;28;20065;-60
2022/09/04 00:56:34;;;;;;;113.72;22.55;;;;;;;;;;4926111;29;20051;-61
2022/09/04 00:59:14;;;;;;;97.68;20.40;;;;;;;;;;4894802;29;20498;-60
2022/09/04 01:01:46;;;;;;;125.90;24.65;;;;;;;;;;4953963;28;20074;-63
2022/09/04 01:04:29;;;;;;;113.07;21.88;;;;;;;;;;4987523;28;20420;-63
2022/09/04 01:07:09;;;;;;;104.38;21.45;;;;;;;;;;4962009;28;20485;-63
2022/09/04 01:09:42;;;;;;;118.72;22.98;;;;;;;;;;4964454;28;20046;-63
2022/09/04 01:12:27;;;;;;;127.03;24.35;;;;;;;;;;4963775;28;20083;-61
2022/09/04 01:14:59;;;;;;;122.82;25.92;;;;;;;;;;4963982;28;20090;-61
2022/09/04 01:17:29;;;;;;;129.38;26.27;;;;;;;;;;4964515;28;20114;-61
2022/09/04 01:19:56;;;;;;;116.95;25.80;;;;;;;;;;4962314;28;20478;-61
2022/09/04 01:22:26;;;;;;;107.10;24.65;;;;;;;;;;4962895;28;20385;-62
2022/09/04 01:25:04;;;;;;;129.10;25.95;;;;;;;;;;4963965;28;20105;-62
2022/09/04 01:27:50;;;;;;;125.13;25.75;;;;;;;;;;4963640;28;20058;-64
2022/09/04 01:30:21;;;;;;;117.13;25.65;;;;;;;;;;4963577;28;20027;-61
2022/09/04 01:33:14;;;;;;;129.68;26.02;;;;;;;;;;4965255;28;20544;-66
2022/09/04 01:35:40;;;;;;;134.38;26.33;;;;;;;;;;4947209;28;20075;-61
2022/09/04 01:38:29;;;;;;;126.35;24.90;;;;;;;;;;4963296;28;20074;-65
2022/09/04 01:41:14;;;;;;;130.73;25.77;;;;;;;;;;4965809;28;20089;-63
2022/09/04 01:43:41;;;;;;;104.57;25.17;;;;;;;;;;4960567;28;20038;-64
2022/09/04 01:46:26;;;;;;;140.50;27.00;;;;;;;;;;4972689;28;20042;-61
2022/09/04 01:49:00;;;;;;;114.25;22.90;;;;;;;;;;4967095;28;20117;-61
2022/09/04 01:51:36;;;;;;;115.13;23.58;;;;;;;;;;4967057;28;20485;-64
2022/09/04 01:54:10;;;;;;;118.38;23.27;;;;;;;;;;4974085;28;20034;-64
2022/09/04 01:56:40;;;;;;;124.80;23.83;;;;;;;;;;4972328;28;20035;-64
2022/09/04 01:59:20;;;;;;;107.00;23.42;;;;;;;;;;4973847;28;20548;-64
2022/09/04 02:02:02;;;;;;;91.63;22.88;;;;;;;;;;4973726;28;20027;-64
2022/09/04 02:04:51;;;;;;;95.83;22.77;;;;;;;;;;4972521;28;20031;-60
2022/09/04 02:07:18;;;;;;;93.90;22.95;;;;;;;;;;4968189;28;20408;-61
2022/09/04 02:10:00;;;;;;;97.25;21.48;;;;;;;;;;4973592;28;20023;-64
2022/09/04 02:12:34;;;;;;;91.35;21.33;;;;;;;;;;4973110;28;20129;-65
2022/09/04 02:15:02;;;;;;;99.40;21.08;;;;;;;;;;4973366;28;20027;-63
2022/09/04 02:17:52;;;;;;;89.80;19.85;;;;;;;;;;4972488;28;20042;-61
2022/09/04 02:20:27;;;;;;;89.78;20.52;;;;;;;;;;4970225;28;21944;-60
2022/09/04 02:22:55;;;;;;;85.90;20.48;;;;;;;;;;4969556;28;20030;-61
2022/09/04 02:25:28;;;;;;;84.55;19.55;;;;;;;;;;4969920;28;20041;-63
2022/09/04 02:28:13;;;;;;;80.70;19.60;;;;;;;;;;4968782;28;20037;-60
2022/09/04 02:30:49;;;;;;;86.35;19.80;;;;;;;;;;4970450;28;20030;-61
2022/09/04 02:33:34;;;;;;;89.03;19.70;;;;;;;;;;4968724;28;20077;-63
2022/09/04 02:36:14;;;;;;;92.82;20.30;;;;;;;;;;4970718;28;20043;-60
2022/09/04 02:38:53;;;;;;;82.45;20.25;;;;;;;;;;4970822;28;20078;-61
2022/09/04 02:41:26;;;;;;;81.65;19.48;;;;;;;;;;4972460;28;20050;-63
2022/09/04 02:43:56;;;;;;;98.28;19.65;;;;;;;;;;4972349;28;20097;-61
2022/09/04 02:46:48;;;;;;;88.95;20.27;;;;;;;;;;4972143;28;20097;-62
2022/09/04 02:49:24;;;;;;;80.72;20.58;;;;;;;;;;4972221;28;20045;-62
2022/09/04 02:52:06;;;;;;;97.72;22.35;;;;;;;;;;4972400;28;20388;-62
2022/09/04 02:54:39;;;;;;;91.13;22.00;;;;;;;;;;4970937;28;20485;-60
2022/09/04 02:57:09;;;;;;;85.03;23.15;;;;;;;;;;4972250;28;20066;-60
2022/09/04 02:59:46;;;;;;;94.97;23.17;;;;;;;;;;4975541;28;20106;-62
2022/09/04 03:02:31;;;;;;;85.32;22.55;;;;;;;;;;4974818;28;20042;-62
2022/09/04 03:05:01;;;;;;;83.35;21.50;;;;;;;;;;4975154;28;20389;-61
2022/09/04 03:07:34;;;;;;;88.38;23.42;;;;;;;;;;4974184;28;20038;-62
2022/09/04 03:10:12;;;;;;;88.72;22.77;;;;;;;;;;4975085;28;20046;-62
2022/09/04 03:12:39;;;;;;;76.95;22.15;;;;;;;;;;4975317;28;20042;-60
2022/09/04 03:15:14;;;;;;;93.22;21.85;;;;;;;;;;4973869;28;20074;-60
2022/09/04 03:17:47;;;;;;;78.95;22.02;;;;;;;;;;4974894;28;20110;-61
2022/09/04 03:20:19;;;;;;;84.78;19.55;;;;;;;;;;4974437;28;20818;-62
2022/09/04 03:22:57;;;;;;;85.18;20.75;;;;;;;;;;4975313;28;20034;-61
2022/09/04 03:25:28;;;;;;;77.20;20.73;;;;;;;;;;4976607;28;20034;-59
2022/09/04 03:27:55;;;;;;;73.50;20.13;;;;;;;;;;4970257;28;20034;-56
2022/09/04 03:30:22;;;;;;;67.03;20.13;;;;;;;;;;4965803;28;20163;-57
2022/09/04 03:32:52;;;;;;;71.93;19.23;;;;;;;;;;4973927;28;20038;-60
2022/09/04 03:35:37;;;;;;;69.22;18.58;;;;;;;;;;4964731;28;20031;-57
2022/09/04 03:38:22;;;;;;;65.22;18.63;;;;;;;;;;4964556;28;20023;-61
2022/09/04 03:41:07;;;;;;;65.70;18.17;;;;;;;;;;4964751;28;20094;-57
2022/09/04 03:43:44;;;;;;;61.13;17.52;;;;;;;;;;4964030;28;20031;-56
2022/09/04 03:46:14;;;;;;;65.35;19.30;;;;;;;;;;4964369;28;20583;-55
2022/09/04 03:48:48;;;;;;;56.25;16.75;;;;;;;;;;4964510;28;20026;-61
2022/09/04 03:51:15;;;;;;;59.92;18.40;;;;;;;;;;4958322;28;20069;-60
2022/09/04 03:53:44;;;;;;;58.92;17.45;;;;;;;;;;4958383;28;20035;-56
2022/09/04 03:56:24;;;;;;;60.95;18.00;;;;;;;;;;4970074;28;20098;-61
2022/09/04 03:58:51;;;;;;;55.80;17.63;;;;;;;;;;4973481;28;20122;-60
2022/09/04 04:01:26;;;;;;;51.58;16.33;;;;;;;;;;4972421;28;20401;-56
2022/09/04 04:04:14;;;;;;;48.55;15.55;;;;;;;;;;4966086;28;20054;-61
2022/09/04 04:07:00;;;;;;;53.28;16.45;;;;;;;;;;4973373;28;20101;-60
2022/09/04 04:09:30;;;;;;;54.25;16.38;;;;;;;;;;4976337;28;20027;-60
2022/09/04 04:12:15;;;;;;;54.05;15.88;;;;;;;;;;4974775;28;20039;-56
2022/09/04 04:14:48;;;;;;;50.05;15.05;;;;;;;;;;4976203;28;20057;-54
2022/09/04 04:17:30;;;;;;;50.15;15.32;;;;;;;;;;4976182;28;20043;-55
2022/09/04 04:20:04;;;;;;;42.22;14.88;;;;;;;;;;4975990;28;20041;-56
2022/09/04 04:22:34;;;;;;;50.00;14.95;;;;;;;;;;4976096;28;20047;-56
2022/09/04 04:25:15;;;;;;;42.65;14.32;;;;;;;;;;4976113;28;20030;-55
2022/09/04 04:27:48;;;;;;;49.67;14.27;;;;;;;;;;4974549;28;20737;-60
2022/09/04 04:30:19;;;;;;;46.15;14.52;;;;;;;;;;4976142;28;20089;-61
2022/09/04 04:32:51;;;;;;;44.85;14.73;;;;;;;;;;4976087;28;20027;-60
2022/09/04 04:35:27;;;;;;;44.58;13.82;;;;;;;;;;4975704;28;20027;-60
2022/09/04 04:38:08;;;;;;;45.38;14.38;;;;;;;;;;4975889;28;20547;-60
2022/09/04 04:40:35;;;;;;;37.40;13.05;;;;;;;;;;4976008;28;20114;-61
2022/09/04 04:43:16;;;;;;;35.42;12.18;;;;;;;;;;4975920;28;20023;-60
2022/09/04 04:45:49;;;;;;;40.40;12.63;;;;;;;;;;4974554;28;20034;-56
2022/09/04 04:48:16;;;;;;;42.35;12.40;;;;;;;;;;4975577;28;20105;-57
2022/09/04 04:50:56;;;;;;;33.95;12.45;;;;;;;;;;4975785;28;20019;-56
2022/09/04 04:53:39;;;;;;;39.25;12.20;;;;;;;;;;4975659;28;20118;-56
2022/09/04 04:56:13;;;;;;;32.60;11.60;;;;;;;;;;4975481;28;20401;-57
2022/09/04 04:58:46;;;;;;;33.75;11.90;;;;;;;;;;4975606;28;20035;-56
2022/09/04 05:01:39;;;;;;;34.45;11.63;;;;;;;;;;4975639;28;20485;-55
2022/09/04 05:04:17;;;;;;;32.83;12.27;;;;;;;;;;4967239;28;20186;-55
2022/09/04 05:06:58;;;;;;;39.00;11.63;;;;;;;;;;4975371;28;20473;-54
2022/09/04 05:09:33;;;;;;;39.80;11.57;;;;;;;;;;4975317;28;20034;-56
2022/09/04 05:12:18;;;;;;;34.70;11.68;;;;;;;;;;4975122;28;20085;-53
2022/09/04 05:14:46;;;;;;;37.05;11.68;;;;;;;;;;4975307;28;20051;-57
2022/09/04 05:17:31;;;;;;;32.10;11.52;;;;;;;;;;4975222;28;20050;-54
2022/09/04 05:20:16;;;;;;;33.20;10.30;;;;;;;;;;4973554;28;20485;-56
2022/09/04 05:23:00;;;;;;;31.00;10.80;;;;;;;;;;4975390;28;20381;-56
2022/09/04 05:25:59;;;;;;;32.88;10.68;;;;;;;;;;4975042;28;20139;-52
2022/09/04 05:28:29;;;;;;;28.20;10.23;;;;;;;;;;4963276;28;20043;-56
2022/09/04 05:31:06;;;;;;;34.05;10.68;;;;;;;;;;4974869;28;20031;-56
2022/09/04 05:33:36;;;;;;;33.88;10.57;;;;;;;;;;4974979;28;20105;-54
2022/09/04 05:36:06;;;;;;;30.52;10.70;;;;;;;;;;4973588;28;20031;-54
2022/09/04 05:38:43;;;;;;;31.67;10.23;;;;;;;;;;4974879;28;20055;-56
2022/09/04 05:41:15;;;;;;;28.33;8.75;;;;;;;;;;4974948;28;20070;-55
2022/09/04 05:44:00;;;;;;;30.20;10.00;;;;;;;;;;4974639;28;20042;-57
2022/09/04 05:46:27;;;;;;;28.75;10.40;;;;;;;;;;4974571;28;20393;-56
2022/09/04 05:49:21;;;;;;;28.33;9.65;;;;;;;;;;4974715;28;20027;-56
2022/09/04 05:51:54;;;;;;;29.05;10.13;;;;;;;;;;4965834;28;20601;-61
2022/09/04 05:54:47;;;;;;;26.10;9.02;;;;;;;;;;4955253;28;20054;-62
2022/09/04 05:57:32;;;;;;;28.50;9.27;;;;;;;;;;4954566;28;20039;-60
2022/09/04 06:00:03;;;;;;;23.73;8.90;;;;;;;;;;4955227;28;20486;-60
2022/09/04 06:02:49;;;;;;;26.27;9.07;;;;;;;;;;4966008;28;20081;-55
2022/09/04 06:05:34;;;;;;;23.17;8.48;;;;;;;;;;4974203;28;20098;-54
2022/09/04 06:08:06;;;;;;;22.38;8.50;;;;;;;;;;4974473;28;20130;-60
2022/09/04 06:10:36;;;;;;;31.73;8.52;;;;;;;;;;4974452;28;20492;-60
2022/09/04 06:13:03;;;;;;;20.85;8.07;;;;;;;;;;4973895;28;20055;-60
2022/09/04 06:15:56;;;;;;;23.42;8.10;;;;;;;;;;4974281;28;20039;-60
2022/09/04 06:18:39;;;;;;;24.17;7.65;;;;;;;;;;4971792;28;20041;-60
2022/09/04 06:21:21;;;;;;;22.00;7.50;;;;;;;;;;4973849;28;20035;-57
2022/09/04 06:23:51;;;;;;;25.52;8.20;;;;;;;;;;4974176;28;20027;-57
2022/09/04 06:26:18;;;;;;;21.55;7.55;;;;;;;;;;4974124;28;20031;-57
2022/09/04 06:28:48;;;;;;;22.15;7.32;;;;;;;;;;4974076;28;20552;-53
2022/09/04 06:31:21;;;;;;;24.85;7.88;;;;;;;;;;4974047;28;20768;-54
2022/09/04 06:33:51;;;;;;;20.13;7.30;;;;;;;;;;4973332;28;20034;-58
2022/09/04 06:36:21;;;;;;;24.58;7.75;;;;;;;;;;4972864;28;20026;-57
2022/09/04 06:39:11;;;;;;;19.58;7.20;;;;;;;;;;4974057;28;20548;-55
2022/09/04 06:41:41;;;;;;;18.35;6.78;;;;;;;;;;4963393;28;20043;-54
2022/09/04 06:44:07;;;;;;;16.88;7.13;;;;;;;;;;4973822;28;20568;-56
2022/09/04 06:46:36;;;;;;;17.77;6.63;;;;;;;;;;4973838;28;20026;-56
2022/09/04 06:49:13;;;;;;;20.05;6.45;;;;;;;;;;4973794;28;20485;-56
2022/09/04 06:51:47;;;;;;;20.75;6.82;;;;;;;;;;4973635;28;20085;-57
2022/09/04 06:54:16;;;;;;;15.70;6.85;;;;;;;;;;4972352;28;20115;-56
2022/09/04 06:56:46;;;;;;;20.05;7.07;;;;;;;;;;4973936;28;20035;-56
2022/09/04 06:59:17;;;;;;;16.63;6.70;;;;;;;;;;4973837;28;20023;-55
2022/09/04 07:02:04;;;;;;;17.13;6.20;;;;;;;;;;4973636;28;20038;-57
2022/09/04 07:04:32;;;;;;;19.13;6.28;;;;;;;;;;4970086;28;20070;-56
2022/09/04 07:07:11;;;;;;;16.33;6.28;;;;;;;;;;4973528;28;20027;-56
2022/09/04 07:09:37;;;;;;;16.92;6.47;;;;;;;;;;4972355;28;20039;-56
2022/09/04 07:12:10;;;;;;;19.98;6.15;;;;;;;;;;4973510;28;20405;-56
2022/09/04 07:14:46;;;;;;;20.55;6.40;;;;;;;;;;4972476;28;20033;-60
2022/09/04 07:17:28;;;;;;;18.30;6.35;;;;;;;;;;4973666;28;20027;-60
2022/09/04 07:19:58;;;;;;;17.85;6.63;;;;;;;;;;4973678;28;20019;-61
2022/09/04 07:22:44;;;;;;;14.02;5.72;;;;;;;;;;4973579;28;20520;-59
2022/09/04 07:25:40;;;;;;;15.27;5.68;;;;;;;;;;4973437;28;20022;-57
2022/09/04 07:28:23;;;;;;;12.60;5.25;;;;;;;;;;4961234;28;20055;-57
2022/09/04 07:30:57;;;;;;;13.15;4.90;;;;;;;;;;4973427;28;20139;-57
2022/09/04 07:33:42;;;;;;;12.98;5.47;;;;;;;;;;4973670;28;20066;-56
2022/09/04 07:36:15;;;;;;;20.67;6.15;;;;;;;;;;4973509;28;20046;-54
2022/09/04 07:38:45;;;;;;;15.18;5.05;;;;;;;;;;4973265;28;20452;-57
2022/09/04 07:41:34;;;;;;;12.40;5.13;;;;;;;;;;4973476;28;20400;-57
2022/09/04 07:44:07;;;;;;;12.02;5.05;;;;;;;;;;4955293;28;20031;-56
2022/09/04 07:46:34;;;;;;;13.98;5.20;;;;;;;;;;4957662;28;20027;-56
2022/09/04 07:49:21;;;;;;;18.98;5.05;;;;;;;;;;4957672;28;20027;-56
2022/09/04 07:52:10;;;;;;;12.18;5.00;;;;;;;;;;4972275;28;20023;-56
2022/09/04 07:54:43;;;;;;;12.13;5.00;;;;;;;;;;4957432;28;20512;-57
2022/09/04 07:57:10;;;;;;;13.63;5.03;;;;;;;;;;4957533;28;20023;-55
2022/09/04 07:59:43;;;;;;;10.63;4.40;;;;;;;;;;4958717;28;20131;-56
2022/09/04 08:02:23;;;;;;;13.75;4.93;;;;;;;;;;4976656;28;20035;-61
2022/09/04 08:04:59;;;;;;;13.57;4.68;;;;;;;;;;4976542;28;20110;-60
2022/09/04 08:07:38;;;;;;;12.48;4.38;;;;;;;;;;4976786;28;20430;-60
2022/09/04 08:10:16;;;;;;;13.20;4.57;;;;;;;;;;4976610;28;20031;-60
2022/09/04 08:13:08;;;;;;;13.07;4.68;;;;;;;;;;4976398;28;20043;-60
2022/09/04 08:15:35;;;;;;;8.77;4.07;;;;;;;;;;4973587;28;20501;-62
2022/09/04 08:18:35;;;;;;;15.30;4.47;;;;;;;;;;4975808;28;20046;-60
2022/09/04 08:21:25;;;;;;;11.57;4.28;;;;;;;;;;4964674;28;20039;-61
2022/09/04 08:24:01;;;;;;;12.15;4.43;;;;;;;;;;4973402;28;20485;-60
2022/09/04 08:26:48;;;;;;;11.15;4.30;;;;;;;;;;4976309;28;20053;-60
2022/09/04 08:29:15;;;;;;;10.48;4.15;;;;;;;;;;4965370;28;20046;-60
2022/09/04 08:32:03;;;;;;;10.20;4.13;;;;;;;;;;4976178;28;20123;-61
2022/09/04 08:34:30;;;;;;;10.30;4.10;;;;;;;;;;4974516;28;20042;-57
2022/09/04 08:37:15;;;;;;;11.35;3.92;;;;;;;;;;4976115;28;20031;-57
2022/09/04 08:39:45;;;;;;;13.15;4.32;;;;;;;;;;4976073;28;20488;-55
2022/09/04 08:42:21;;;;;;;13.93;3.90;;;;;;;;;;4975999;28;20086;-55
2022/09/04 08:45:06;;;;;;;12.40;3.80;;;;;;;;;;4975926;28;20058;-57
2022/09/04 08:47:42;;;;;;;9.30;3.45;;;;;;;;;;4975806;28;20366;-57
2022/09/04 08:50:26;;;;;;;10.77;3.70;;;;;;;;;;4973167;28;20038;-61
2022/09/04 08:53:02;;;;;;;11.60;3.97;;;;;;;;;;4975748;28;20030;-60
2022/09/04 08:55:54;;;;;;;10.25;3.58;;;;;;;;;;4975094;28;20023;-60
2022/09/04 08:58:39;;;;;;;9.50;3.72;;;;;;;;;;4975545;28;20067;-57
2022/09/04 09:01:20;;;;;;;13.85;4.35;;;;;;;;;;4975668;28;20027;-56
2022/09/04 09:04:05;;;;;;;12.80;3.95;;;;;;;;;;4975438;28;20470;-57
2022/09/04 09:06:43;;;;;;;8.73;3.53;;;;;;;;;;4974363;28;20034;-56
2022/09/04 09:09:28;;;;;;;9.43;3.50;;;;;;;;;;4975352;28;20038;-57
2022/09/04 09:12:14;;;;;;;11.40;3.50;;;;;;;;;;4975111;28;20065;-53
2022/09/04 09:15:06;;;;;;;9.13;3.72;;;;;;;;;;4975499;28;20549;-57
2022/09/04 09:17:38;;;;;;;9.20;3.40;;;;;;;;;;4952903;28;20401;-57
2022/09/04 09:20:17;;;;;;;9.25;3.03;;;;;;;;;;4975255;28;20512;-56
2022/09/04 09:23:06;;;;;;;10.88;3.40;;;;;;;;;;4974200;28;20366;-59
2022/09/04 09:25:43;;;;;;;7.75;3.13;;;;;;;;;;4955601;28;20113;-60
2022/09/04 09:28:19;;;;;;;7.22;3.17;;;;;;;;;;4955885;28;20389;-61
2022/09/04 09:31:01;;;;;;;9.15;3.45;;;;;;;;;;4956045;28;20035;-60
2022/09/04 09:33:28;;;;;;;13.27;3.78;;;;;;;;;;4955751;29;20030;-60
2022/09/04 09:36:13;;;;;;;10.93;3.60;;;;;;;;;;4965568;28;20043;-56
2022/09/04 09:38:43;;;;;;;7.43;3.03;;;;;;;;;;4973555;28;20046;-57
2022/09/04 09:41:29;;;;;;;6.72;3.03;;;;;;;;;;4974902;28;20027;-56
2022/09/04 09:44:13;;;;;;;9.55;2.92;;;;;;;;;;4974878;28;20053;-57
2022/09/04 09:46:49;;;;;;;9.77;3.38;;;;;;;;;;4974787;28;20043;-57
2022/09/04 09:49:35;;;;;;;10.35;3.20;;;;;;;;;;4974802;28;20509;-53
2022/09/04 09:52:13;;;;;;;10.95;3.30;;;;;;;;;;4974750;28;20031;-54
2022/09/04 09:54:49;;;;;;;10.00;3.05;;;;;;;;;;4973363;28;20050;-55
2022/09/04 09:57:34;;;;;;;9.60;3.25;;;;;;;;;;4973448;28;20027;-57
2022/09/04 10:00:18;;;;;;;12.32;3.10;;;;;;;;;;4974322;28;20045;-56
2022/09/04 10:03:03;;;;;;;10.77;3.25;;;;;;;;;;4974227;28;20435;-53
2022/09/04 10:05:45;;;;;;;9.00;2.95;;;;;;;;;;4974314;28;20113;-53
2022/09/04 10:08:30;;;;;;;8.98;3.05;;;;;;;;;;4974316;28;20039;-55
2022/09/04 10:11:15;;;;;;;8.70;2.83;;;;;;;;;;4974067;28;20062;-56
2022/09/04 10:14:00;;;;;;;6.13;2.90;;;;;;;;;;4972926;28;20488;-61
2022/09/04 10:16:35;;;;;;;8.45;2.55;;;;;;;;;;4974194;28;20066;-61
2022/09/04 10:19:17;;;;;;;9.00;3.28;;;;;;;;;;4974171;28;20073;-60
2022/09/04 10:22:03;;;;;;;9.05;3.05;;;;;;;;;;4974172;28;20046;-61
2022/09/04 10:24:48;;;;;;;8.55;2.80;;;;;;;;;;4974181;28;20086;-60
2022/09/04 10:27:36;;;;;;;7.13;2.63;;;;;;;;;;4973949;28;20058;-61
2022/09/04 10:30:06;;;;;;;6.68;2.53;;;;;;;;;;4972305;28;20102;-61
2022/09/04 10:32:53;;;;;;;8.98;2.65;;;;;;;;;;4972671;28;20035;-60
2022/09/04 10:35:20;;;;;;;10.52;2.75;;;;;;;;;;4974042;28;20042;-61
2022/09/04 10:37:53;;;;;;;7.63;2.63;;;;;;;;;;4973930;28;20035;-61
2022/09/04 10:40:37;;;;;;;9.00;2.70;;;;;;;;;;4973893;28;20093;-61
2022/09/04 10:43:22;;;;;;;7.35;2.78;;;;;;;;;;4973735;28;20034;-60
2022/09/04 10:45:59;;;;;;;9.02;2.75;;;;;;;;;;4973885;28;20030;-60
2022/09/04 10:48:29;;;;;;;9.25;2.55;;;;;;;;;;4972606;28;20074;-57
2022/09/04 10:50:56;;;;;;;7.32;2.30;;;;;;;;;;4973931;28;20382;-56
2022/09/04 10:53:41;;;;;;;7.32;2.50;;;;;;;;;;4973725;28;20026;-57
2022/09/04 10:56:28;;;;;;;5.57;2.63;;;;;;;;;;4973907;28;20027;-57
2022/09/04 10:59:14;;;;;;;11.07;3.10;;;;;;;;;;4973646;28;20066;-56
2022/09/04 11:02:01;;;;;;;11.05;2.90;;;;;;;;;;4973839;28;20089;-57
2022/09/04 11:04:28;;;;;;;10.65;2.75;;;;;;;;;;4972315;28;20070;-60
2022/09/04 11:07:01;;;;;;;7.28;2.53;;;;;;;;;;4973594;28;20489;-60
2022/09/04 11:09:28;;;;;;;8.95;2.60;;;;;;;;;;4973662;28;20038;-61
2022/09/04 11:11:55;;;;;;;9.88;2.78;;;;;;;;;;4973533;28;20126;-61
2022/09/04 11:14:30;;;;;;;7.82;2.55;;;;;;;;;;4973506;28;20057;-60
2022/09/04 11:17:09;;;;;;;7.78;2.40;;;;;;;;;;4973681;28;20039;-61
2022/09/04 11:19:54;;;;;;;8.75;2.42;;;;;;;;;;4975892;28;20022;-60
2022/09/04 11:22:42;;;;;;;12.27;2.85;;;;;;;;;;4976046;28;20121;-60
2022/09/04 11:25:24;;;;;;;8.13;2.47;;;;;;;;;;4965733;28;20034;-60
2022/09/04 11:27:57;;;;;;;7.47;2.70;;;;;;;;;;4977393;28;20062;-60
2022/09/04 11:30:32;;;;;;;6.80;2.60;;;;;;;;;;4977226;28;20393;-60
2022/09/04 11:33:17;;;;;;;9.80;2.60;;;;;;;;;;4977344;28;20019;-60
2022/09/04 11:35:50;;;;;;;8.95;2.38;;;;;;;;;;4976213;28;20031;-55
2022/09/04 11:38:20;;;;;;;7.78;2.42;;;;;;;;;;4977215;28;20556;-56
2022/09/04 11:40:47;;;;;;;11.45;2.40;;;;;;;;;;4976395;28;20019;-56
2022/09/04 11:43:23;;;;;;;9.45;2.60;;;;;;;;;;4964652;28;20038;-60
2022/09/04 11:45:50;;;;;;;10.40;2.65;;;;;;;;;;4960077;28;20118;-60
2022/09/04 11:48:20;;;;;;;11.70;2.63;;;;;;;;;;4962667;28;20035;-57
2022/09/04 11:51:03;;;;;;;6.10;2.45;;;;;;;;;;4961558;28;20455;-57
2022/09/04 11:53:36;;;;;;;8.88;2.65;;;;;;;;;;4965132;28;20035;-57
2022/09/04 11:56:26;;;;;;;7.38;2.47;;;;;;;;;;4965184;28;20053;-61
2022/09/04 11:58:59;;;;;;;10.25;2.38;;;;;;;;;;4959150;28;20074;-60
2022/09/04 12:01:26;;;;;;;7.70;2.40;;;;;;;;;;4966663;28;20042;-60
2022/09/04 12:03:53;;;;;;;6.93;2.45;;;;;;;;;;4966273;28;20056;-62
2022/09/04 12:06:33;;;;;;;8.93;2.47;;;;;;;;;;4967423;28;20030;-58
2022/09/04 12:09:00;;;;;;;14.55;3.15;;;;;;;;;;4964641;28;20477;-61
2022/09/04 12:11:46;;;;;;;24.60;3.63;;;;;;;;;;4966281;28;20383;-61
2022/09/04 12:14:25;;;;;;;20.15;3.60;;;;;;;;;;4966827;28;20027;-61
2022/09/04 12:16:52;;;;;;;16.35;3.50;;;;;;;;;;4966752;28;20038;-61
2022/09/04 12:19:23;;;;;;;22.95;3.85;;;;;;;;;;4964534;28;20038;-61
2022/09/04 12:22:08;;;;;;;19.75;3.47;;;;;;;;;;4972735;28;20027;-60
2022/09/04 12:24:37;;;;;;;18.48;3.50;;;;;;;;;;4974150;28;20126;-61
2022/09/04 12:27:16;;;;;;;22.88;3.60;;;;;;;;;;4972878;28;20169;-61
2022/09/04 12:29:50;;;;;;;20.77;3.90;;;;;;;;;;4971128;28;20058;-61
2022/09/04 12:32:20;;;;;;;13.68;3.60;;;;;;;;;;4964459;28;20135;-60
2022/09/04 12:34:58;;;;;;;22.83;3.92;;;;;;;;;;4966033;28;20491;-60
2022/09/04 12:37:28;;;;;;;20.75;4.82;;;;;;;;;;4966741;28;20091;-61
2022/09/04 12:40:15;;;;;;;20.48;4.78;;;;;;;;;;4966845;28;20027;-62
2022/09/04 12:42:48;;;;;;;19.48;4.65;;;;;;;;;;4966755;28;20066;-59
2022/09/04 12:45:39;;;;;;;19.42;4.20;;;;;;;;;;4974996;28;20844;-62
2022/09/04 12:48:09;;;;;;;19.70;4.72;;;;;;;;;;4972618;28;20528;-59
2022/09/04 12:50:51;;;;;;;14.70;4.10;;;;;;;;;;4973062;28;20382;-62
2022/09/04 12:53:18;;;;;;;;;;;;;;;;;;4969417;28;20030;-59
2022/09/04 12:56:01;;;;;;;19.48;3.97;;;;;;;;;;4975511;28;19939;-61
2022/09/04 12:58:35;;;;;;;14.65;3.33;;;;;;;;;;4956146;28;20489;-62
2022/09/04 13:01:17;;;;;;;15.02;3.67;;;;;;;;;;4973945;28;20039;-60
2022/09/04 13:03:44;;;;;;;17.45;3.45;;;;;;;;;;4971010;28;20023;-60
2022/09/04 13:06:31;;;;;;;15.25;3.33;;;;;;;;;;4955979;28;20038;-59
2022/09/04 13:08:58;;;;;;;18.33;4.00;;;;;;;;;;4956086;28;20110;-57
2022/09/04 13:11:36;;;;;;;10.57;3.35;;;;;;;;;;4973099;28;20126;-60
2022/09/04 13:14:36;;;;;;;17.23;3.35;;;;;;;;;;4974892;28;20082;-60
2022/09/04 13:17:08;;;;;;;16.67;3.40;;;;;;;;;;4948189;28;20044;-60
2022/09/04 13:19:58;;;;;;;13.38;2.90;;;;;;;;;;4971388;28;20026;-57
2022/09/04 13:22:28;;;;;;;17.00;3.30;;;;;;;;;;4962551;28;20039;-60
2022/09/04 13:25:15;;;;;;;15.85;3.17;;;;;;;;;;4955532;28;20023;-57
2022/09/04 13:27:46;;;;;;;17.48;3.63;;;;;;;;;;4963197;28;20144;-56
2022/09/04 13:30:19;;;;;;;18.48;4.32;;;;;;;;;;4974308;28;20038;-54
2022/09/04 13:33:01;;;;;;;12.18;3.05;;;;;;;;;;4972838;28;20039;-59
2022/09/04 13:35:48;;;;;;;11.15;2.70;;;;;;;;;;4962910;28;20042;-61
2022/09/04 13:38:40;;;;;;;14.45;3.10;;;;;;;;;;4974517;28;20049;-61
2022/09/04 13:41:46;;;;;;;13.27;2.88;;;;;;;;;;4971049;28;20031;-61
2022/09/04 13:44:13;;;;;;;12.57;3.03;;;;;;;;;;4889434;29;20044;-58
2022/09/04 13:46:44;;;;;;;12.52;2.60;;;;;;;;;;4895559;29;20492;-59
2022/09/04 13:49:21;;;;;;;17.33;2.60;;;;;;;;;;4917927;28;20035;-54
2022/09/04 13:51:58;;;;;;;11.30;2.67;;;;;;;;;;4969943;28;20469;-57
2022/09/04 13:54:30;;;;;;;16.27;3.03;;;;;;;;;;4974550;28;20031;-58
2022/09/04 13:56:57;;;;;;;11.73;2.85;;;;;;;;;;4973266;28;20043;-58
2022/09/04 13:59:24;;;;;;;10.98;2.55;;;;;;;;;;4973200;28;20030;-55
2022/09/04 14:01:54;;;;;;;11.25;2.50;;;;;;;;;;4960293;28;20031;-59
2022/09/04 14:04:27;;;;;;;11.43;2.55;;;;;;;;;;4954885;28;20394;-60
2022/09/04 14:07:05;;;;;;;9.07;2.67;;;;;;;;;;4954989;28;20039;-56
2022/09/04 14:09:33;;;;;;;7.50;2.30;;;;;;;;;;4966484;28;20039;-56
2022/09/04 14:12:09;;;;;;;14.90;3.20;;;;;;;;;;4966032;28;20417;-59
2022/09/04 14:15:06;;;;;;;10.95;2.60;;;;;;;;;;4963033;28;20139;-60
2022/09/04 14:17:38;;;;;;;8.45;2.75;;;;;;;;;;4954674;28;20117;-59
2022/09/04 14:20:14;;;;;;;12.32;2.60;;;;;;;;;;4963475;28;20027;-60
2022/09/04 14:22:47;;;;;;;12.88;2.40;;;;;;;;;;4959883;28;20049;-57
2022/09/04 14:25:14;;;;;;;;;;;;;;;;;;4961250;28;20039;-55
2022/09/04 14:27:53;;;;;;;14.55;2.55;;;;;;;;;;4956372;28;20451;-60
2022/09/04 14:30:21;;;;;;;14.48;2.40;;;;;;;;;;4958144;28;20035;-55
2022/09/04 14:33:07;;;;;;;11.57;2.53;;;;;;;;;;4963097;28;20058;-56
2022/09/04 14:35:58;;;;;;;13.82;3.05;;;;;;;;;;4963803;28;20110;-55
2022/09/04 14:38:26;;;;;;;14.55;2.80;;;;;;;;;;4964831;28;20122;-56
2022/09/04 14:41:04;;;;;;;15.18;2.50;;;;;;;;;;4963098;28;20031;-52
2022/09/04 14:43:49;;;;;;;11.98;2.30;;;;;;;;;;4963209;28;20126;-60
2022/09/04 14:46:40;;;;;;;15.13;2.90;;;;;;;;;;4963833;28;20034;-59
2022/09/04 14:49:08;;;;;;;12.15;2.25;;;;;;;;;;4941132;28;20101;-59
2022/09/04 14:51:37;;;;;;;21.70;2.83;;;;;;;;;;4959585;28;20114;-60
2022/09/04 14:54:05;;;;;;;11.45;2.80;;;;;;;;;;4963726;28;20027;-56
2022/09/04 14:56:44;;;;;;;20.50;3.08;;;;;;;;;;4962443;28;20086;-54
2022/09/04 14:59:20;;;;;;;14.60;2.97;;;;;;;;;;4962817;28;20043;-59
2022/09/04 15:02:06;;;;;;;19.05;2.53;;;;;;;;;;4966615;28;20113;-55
2022/09/04 15:04:36;;;;;;;21.35;3.20;;;;;;;;;;4972800;28;20051;-55
2022/09/04 15:07:16;;;;;;;13.52;2.65;;;;;;;;;;4972853;28;20158;-57
2022/09/04 15:09:46;;;;;;;7.00;1.85;;;;;;;;;;4972112;28;20023;-59
2022/09/04 15:12:22;;;;;;;17.45;3.15;;;;;;;;;;4972420;28;20093;-55
2022/09/04 15:14:51;;;;;;;13.75;2.60;;;;;;;;;;4971527;28;20167;-59
2022/09/04 15:17:38;;;;;;;16.33;2.70;;;;;;;;;;4971812;28;20034;-54
2022/09/04 15:20:13;;;;;;;12.00;2.17;;;;;;;;;;4970357;28;20486;-58
2022/09/04 15:22:42;;;;;;;20.13;2.40;;;;;;;;;;4972757;28;20057;-54
2022/09/04 15:25:19;;;;;;;18.13;2.78;;;;;;;;;;4971429;28;20389;-54